createdAt,value
2022-09-12T00:00:51.235Z,961.49
2022-09-12T00:01:51.354Z,961.47
2022-09-12T00:04:51.293Z,961.48
2022-09-12T00:06:51.419Z,961.45
2022-09-12T00:07:52.702Z,961.46
2022-09-12T00:09:51.421Z,961.45
2022-09-12T00:10:51.542Z,961.46
2022-09-12T00:11:51.255Z,961.43
2022-09-12T00:12:51.669Z,961.44
2022-09-12T00:14:51.375Z,961.45
2022-09-12T00:15:51.348Z,961.49
2022-09-12T00:17:51.263Z,961.47
2022-09-12T00:18:51.346Z,961.41
2022-09-12T00:19:51.423Z,961.39
2022-09-12T00:20:51.377Z,961.41
2022-09-12T00:21:51.269Z,961.39
2022-09-12T00:22:52.589Z,961.43
2022-09-12T00:23:51.267Z,961.42
2022-09-12T00:24:51.351Z,961.45
2022-09-12T00:26:51.277Z,961.43
2022-09-12T00:27:51.359Z,961.44
2022-09-12T00:30:51.359Z,961.43
2022-09-12T00:32:51.498Z,961.43
2022-09-12T00:33:51.361Z,961.41
2022-09-12T00:34:51.433Z,961.44
2022-09-12T00:36:51.359Z,961.44
2022-09-12T00:37:51.436Z,961.39
2022-09-12T00:38:51.412Z,961.38
2022-09-12T00:39:51.329Z,961.36
2022-09-12T00:40:52.680Z,961.33
2022-09-12T00:41:51.410Z,961.3
2022-09-12T00:42:51.372Z,961.31
2022-09-12T00:43:51.341Z,961.3
2022-09-12T00:45:52.725Z,961.31
2022-09-12T00:46:51.449Z,961.34
2022-09-12T00:47:51.594Z,961.32
2022-09-12T00:48:51.337Z,961.3
2022-09-12T00:49:51.457Z,961.26
2022-09-12T00:50:51.421Z,961.27
2022-09-12T00:53:51.485Z,961.28
2022-09-12T00:55:51.453Z,961.28
2022-09-12T00:56:51.433Z,961.27
2022-09-12T00:57:51.346Z,961.26
2022-09-12T00:58:51.480Z,961.28
2022-09-12T00:59:51.431Z,961.24
2022-09-12T01:00:51.638Z,961.26
2022-09-12T01:01:51.552Z,961.29
2022-09-12T01:02:51.443Z,961.25
2022-09-12T01:04:51.472Z,961.29
2022-09-12T01:05:51.449Z,961.26
2022-09-12T01:06:51.517Z,961.27
2022-09-12T01:07:51.485Z,961.26
2022-09-12T01:08:51.455Z,961.23
2022-09-12T01:11:51.657Z,961.22
2022-09-12T01:13:51.502Z,961.24
2022-09-12T01:14:51.465Z,961.19
2022-09-12T01:15:51.522Z,961.17
2022-09-12T01:18:51.699Z,961.12
2022-09-12T01:19:51.562Z,961.13
2022-09-12T01:20:51.464Z,961.18
2022-09-12T01:21:51.547Z,961.11
2022-09-12T01:23:51.579Z,961.15
2022-09-12T01:24:51.430Z,961.08
2022-09-12T01:25:51.507Z,961.16
2022-09-12T01:26:51.596Z,961.1
2022-09-12T01:27:51.548Z,961.14
2022-09-12T01:28:51.511Z,961.08
2022-09-12T01:30:51.550Z,961.07
2022-09-12T01:31:51.567Z,961.03
2022-09-12T01:34:51.441Z,961.02
2022-09-12T01:35:51.460Z,960.97
2022-09-12T01:38:51.588Z,960.96
2022-09-12T01:39:51.747Z,960.97
2022-09-12T01:40:51.683Z,960.95
2022-09-12T01:42:51.562Z,960.9
2022-09-12T01:45:51.578Z,960.89
2022-09-12T01:46:51.465Z,960.86
2022-09-12T01:47:51.520Z,960.87
2022-09-12T01:48:51.569Z,960.88
2022-09-12T01:49:51.536Z,960.86
2022-09-12T01:50:51.603Z,960.83
2022-09-12T01:51:51.573Z,960.82
2022-09-12T01:52:51.639Z,960.88
2022-09-12T01:53:51.483Z,960.85
2022-09-12T01:54:51.582Z,960.87
2022-09-12T01:55:51.550Z,960.85
2022-09-12T01:57:51.582Z,960.79
2022-09-12T02:00:51.624Z,960.8
2022-09-12T02:01:51.706Z,960.82
2022-09-12T02:03:51.833Z,960.86
2022-09-12T02:05:51.528Z,960.91
2022-09-12T02:06:52.084Z,960.88
2022-09-12T02:07:51.520Z,960.91
2022-09-12T02:08:51.625Z,960.92
2022-09-12T02:09:51.600Z,960.91
2022-09-12T02:10:51.664Z,960.88
2022-09-12T02:12:51.600Z,960.9
2022-09-12T02:13:51.674Z,960.91
2022-09-12T02:14:51.630Z,960.86
2022-09-12T02:15:51.601Z,960.89
2022-09-12T02:16:51.600Z,960.9
2022-09-12T02:17:51.639Z,960.89
2022-09-12T02:18:51.607Z,960.92
2022-09-12T02:19:51.677Z,960.9
2022-09-12T02:20:51.647Z,960.88
2022-09-12T02:21:51.609Z,960.91
2022-09-12T02:22:51.573Z,960.9
2022-09-12T02:23:51.649Z,960.89
2022-09-12T02:24:52.818Z,960.91
2022-09-12T02:25:51.579Z,960.87
2022-09-12T02:26:51.653Z,960.91
2022-09-12T02:27:51.569Z,960.87
2022-09-12T02:28:51.584Z,960.85
2022-09-12T02:29:51.659Z,960.88
2022-09-12T02:30:53.019Z,960.86
2022-09-12T02:31:51.585Z,960.82
2022-09-12T02:32:52.165Z,960.84
2022-09-12T02:33:51.729Z,960.82
2022-09-12T02:34:51.728Z,960.81
2022-09-12T02:35:51.664Z,960.83
2022-09-12T02:36:51.739Z,960.81
2022-09-12T02:38:51.743Z,960.78
2022-09-12T02:39:51.791Z,960.81
2022-09-12T02:40:51.712Z,960.8
2022-09-12T02:41:51.803Z,960.75
2022-09-12T02:42:51.743Z,960.73
2022-09-12T02:44:51.685Z,960.72
2022-09-12T02:46:51.721Z,960.73
2022-09-12T02:47:51.688Z,960.74
2022-09-12T02:48:51.647Z,960.73
2022-09-12T02:49:51.722Z,960.72
2022-09-12T02:51:51.657Z,960.72
2022-09-12T02:52:51.719Z,960.7
2022-09-12T02:53:51.638Z,960.73
2022-09-12T02:55:51.636Z,960.74
2022-09-12T02:56:51.696Z,960.7
2022-09-12T02:57:51.764Z,960.69
2022-09-12T02:58:51.734Z,960.75
2022-09-12T02:59:53.018Z,960.7
2022-09-12T03:00:51.777Z,960.69
2022-09-12T03:01:51.763Z,960.71
2022-09-12T03:02:51.698Z,960.72
2022-09-12T03:03:51.658Z,960.68
2022-09-12T03:04:51.744Z,960.69
2022-09-12T03:05:53.059Z,960.72
2022-09-12T03:06:51.768Z,960.71
2022-09-12T03:07:51.743Z,960.7
2022-09-12T03:08:51.812Z,960.73
2022-09-12T03:09:51.781Z,960.72
2022-09-12T03:10:51.747Z,960.74
2022-09-12T03:12:51.785Z,960.71
2022-09-12T03:14:52.081Z,960.69
2022-09-12T03:15:51.783Z,960.71
2022-09-12T03:18:51.935Z,960.71
2022-09-12T03:20:51.831Z,960.73
2022-09-12T03:21:51.792Z,960.76
2022-09-12T03:22:51.767Z,960.74
2022-09-12T03:24:51.811Z,960.8
2022-09-12T03:25:52.013Z,960.81
2022-09-12T03:26:51.843Z,960.78
2022-09-12T03:27:51.799Z,960.76
2022-09-12T03:28:51.767Z,960.78
2022-09-12T03:29:51.841Z,960.79
2022-09-12T03:30:51.846Z,960.75
2022-09-12T03:31:51.878Z,960.77
2022-09-12T03:32:52.089Z,960.75
2022-09-12T03:36:51.824Z,960.76
2022-09-12T03:37:51.886Z,960.78
2022-09-12T03:39:52.866Z,960.77
2022-09-12T03:40:54.779Z,960.78
2022-09-12T03:41:51.970Z,960.77
2022-09-12T03:43:51.795Z,960.78
2022-09-12T03:44:51.859Z,960.77
2022-09-12T03:45:51.865Z,960.79
2022-09-12T03:47:51.753Z,960.8
2022-09-12T03:48:51.935Z,960.82
2022-09-12T03:49:51.760Z,960.81
2022-09-12T03:51:52.578Z,960.83
2022-09-12T03:52:51.804Z,960.79
2022-09-12T03:53:51.866Z,960.8
2022-09-12T03:54:51.807Z,960.81
2022-09-12T03:55:51.904Z,960.77
2022-09-12T03:56:51.777Z,960.8
2022-09-12T03:57:51.846Z,960.81
2022-09-12T04:01:52.110Z,960.75
2022-09-12T04:03:51.872Z,960.74
2022-09-12T04:04:51.921Z,960.76
2022-09-12T04:05:51.796Z,960.71
2022-09-12T04:06:51.962Z,960.74
2022-09-12T04:07:51.931Z,960.73
2022-09-12T04:11:51.912Z,960.76
2022-09-12T04:12:51.861Z,960.74
2022-09-12T04:14:52.086Z,960.79
2022-09-12T04:15:51.979Z,960.81
2022-09-12T04:16:51.953Z,960.79
2022-09-12T04:17:51.911Z,960.83
2022-09-12T04:21:51.874Z,960.85
2022-09-12T04:24:51.991Z,960.86
2022-09-12T04:25:51.946Z,960.83
2022-09-12T04:26:51.922Z,960.84
2022-09-12T04:27:51.852Z,960.83
2022-09-12T04:28:51.960Z,960.86
2022-09-12T04:29:51.930Z,960.85
2022-09-12T04:30:52.031Z,960.87
2022-09-12T04:31:51.965Z,960.85
2022-09-12T04:32:51.924Z,960.86
2022-09-12T04:33:51.989Z,960.88
2022-09-12T04:34:51.965Z,960.91
2022-09-12T04:35:52.030Z,960.86
2022-09-12T04:36:51.997Z,960.88
2022-09-12T04:38:51.928Z,960.85
2022-09-12T04:39:52.021Z,960.86
2022-09-12T04:40:52.063Z,960.88
2022-09-12T04:41:51.880Z,960.86
2022-09-12T04:42:52.007Z,960.91
2022-09-12T04:43:51.966Z,960.86
2022-09-12T04:44:52.041Z,960.92
2022-09-12T04:45:51.964Z,960.91
2022-09-12T04:48:56.582Z,960.92
2022-09-12T04:49:52.114Z,960.91
2022-09-12T04:51:52.178Z,960.87
2022-09-12T04:52:51.908Z,960.88
2022-09-12T04:55:51.998Z,960.91
2022-09-12T04:56:51.917Z,960.9
2022-09-12T04:57:52.024Z,960.88
2022-09-12T04:58:52.014Z,960.89
2022-09-12T04:59:52.059Z,960.88
2022-09-12T05:02:53.260Z,960.87
2022-09-12T05:03:52.035Z,960.86
2022-09-12T05:05:56.306Z,960.88
2022-09-12T05:06:52.081Z,960.92
2022-09-12T05:07:51.947Z,960.9
2022-09-12T05:08:52.078Z,960.94
2022-09-12T05:09:51.947Z,960.89
2022-09-12T05:10:52.100Z,960.96
2022-09-12T05:12:04.062Z,960.92
2022-09-12T05:12:52.991Z,960.93
2022-09-12T05:13:52.108Z,960.98
2022-09-12T05:14:52.067Z,960.97
2022-09-12T05:15:52.041Z,960.96
2022-09-12T05:17:52.207Z,960.95
2022-09-12T05:18:52.071Z,960.97
2022-09-12T05:19:52.021Z,960.98
2022-09-12T05:20:52.113Z,961.01
2022-09-12T05:24:52.286Z,961.03
2022-09-12T05:25:52.147Z,961.01
2022-09-12T05:26:52.116Z,961
2022-09-12T05:27:52.082Z,961.04
2022-09-12T05:28:52.144Z,961.03
2022-09-12T05:29:52.100Z,961.05
2022-09-12T05:30:52.120Z,961
2022-09-12T05:31:52.388Z,961.04
2022-09-12T05:32:52.098Z,961.05
2022-09-12T05:33:52.067Z,961.07
2022-09-12T05:35:52.015Z,961.07
2022-09-12T05:36:52.084Z,961.06
2022-09-12T05:37:52.071Z,961.05
2022-09-12T05:38:52.016Z,961.04
2022-09-12T05:40:52.994Z,961.03
2022-09-12T05:41:52.031Z,961.06
2022-09-12T05:42:52.084Z,961.05
2022-09-12T05:44:52.045Z,961.08
2022-09-12T05:45:52.078Z,961.06
2022-09-12T05:46:52.169Z,961.07
2022-09-12T05:48:55.768Z,961.08
2022-09-12T05:49:52.180Z,961.09
2022-09-12T05:51:52.304Z,961.11
2022-09-12T05:52:52.053Z,961.14
2022-09-12T05:53:52.045Z,961.15
2022-09-12T05:54:52.207Z,961.18
2022-09-12T05:55:52.348Z,961.2
2022-09-12T05:57:53.391Z,961.21
2022-09-12T05:59:52.063Z,961.23
2022-09-12T06:01:52.185Z,961.26
2022-09-12T06:02:52.083Z,961.25
2022-09-12T06:03:52.223Z,961.27
2022-09-12T06:05:52.067Z,961.25
2022-09-12T06:06:52.221Z,961.26
2022-09-12T06:07:52.184Z,961.29
2022-09-12T06:09:52.119Z,961.31
2022-09-12T06:10:52.092Z,961.32
2022-09-12T06:11:52.093Z,961.33
2022-09-12T06:13:52.092Z,961.36
2022-09-12T06:14:52.159Z,961.41
2022-09-12T06:15:52.246Z,961.36
2022-09-12T06:17:52.287Z,961.39
2022-09-12T06:18:52.123Z,961.38
2022-09-12T06:20:52.296Z,961.37
2022-09-12T06:21:52.616Z,961.38
2022-09-12T06:22:52.213Z,961.35
2022-09-12T06:24:56.026Z,961.34
2022-09-12T06:27:52.251Z,961.33
2022-09-12T06:30:52.284Z,961.35
2022-09-12T06:31:52.129Z,961.36
2022-09-12T06:32:52.304Z,961.37
2022-09-12T06:34:52.154Z,961.34
2022-09-12T06:35:52.297Z,961.37
2022-09-12T06:36:52.269Z,961.32
2022-09-12T06:37:52.250Z,961.31
2022-09-12T06:39:52.336Z,961.35
2022-09-12T06:41:53.293Z,961.33
2022-09-12T06:42:52.174Z,961.34
2022-09-12T06:43:52.233Z,961.33
2022-09-12T06:44:52.190Z,961.34
2022-09-12T06:45:52.430Z,961.33
2022-09-12T06:46:52.244Z,961.34
2022-09-12T06:47:52.323Z,961.36
2022-09-12T06:48:52.281Z,961.37
2022-09-12T06:49:52.249Z,961.35
2022-09-12T06:50:52.314Z,961.41
2022-09-12T06:51:53.252Z,961.4
2022-09-12T06:52:52.358Z,961.42
2022-09-12T06:53:52.318Z,961.41
2022-09-12T06:55:52.845Z,961.39
2022-09-12T06:56:52.462Z,961.38
2022-09-12T06:58:52.361Z,961.36
2022-09-12T06:59:52.325Z,961.38
2022-09-12T07:00:54.975Z,961.36
2022-09-12T07:01:52.399Z,961.38
2022-09-12T07:02:52.216Z,961.37
2022-09-12T07:03:52.318Z,961.38
2022-09-12T07:04:52.293Z,961.35
2022-09-12T07:05:52.339Z,961.4
2022-09-12T07:06:52.302Z,961.38
2022-09-12T07:07:52.374Z,961.41
2022-09-12T07:08:52.345Z,961.42
2022-09-12T07:09:52.307Z,961.44
2022-09-12T07:10:52.393Z,961.47
2022-09-12T07:11:52.346Z,961.6
2022-09-12T07:12:52.309Z,961.84
2022-09-12T07:13:53.533Z,962.07
2022-09-12T07:14:52.354Z,962.32
2022-09-12T07:15:52.323Z,962.54
2022-09-12T07:16:52.419Z,962.64
2022-09-12T07:18:52.482Z,962.68
2022-09-12T07:19:52.385Z,962.69
2022-09-12T07:20:52.362Z,962.64
2022-09-12T07:21:56.581Z,962.69
2022-09-12T07:22:52.393Z,962.57
2022-09-12T07:23:52.269Z,962.53
2022-09-12T07:24:52.326Z,962.48
2022-09-12T07:25:52.302Z,962.41
2022-09-12T07:26:52.368Z,962.38
2022-09-12T07:27:52.436Z,962.33
2022-09-12T07:29:52.475Z,962.23
2022-09-12T07:30:52.520Z,962.19
2022-09-12T07:31:52.299Z,962.14
2022-09-12T07:33:54.681Z,962.06
2022-09-12T07:34:52.428Z,962.01
2022-09-12T07:35:52.372Z,962
2022-09-12T07:36:52.372Z,962.01
2022-09-12T07:37:52.413Z,961.99
2022-09-12T07:38:55.608Z,961.88
2022-09-12T07:39:52.331Z,961.94
2022-09-12T07:40:52.418Z,961.91
2022-09-12T07:41:52.389Z,961.89
2022-09-12T07:42:52.390Z,961.74
2022-09-12T07:44:52.394Z,961.65
2022-09-12T07:45:52.385Z,961.6
2022-09-12T07:46:52.421Z,961.69
2022-09-12T07:48:52.772Z,961.64
2022-09-12T07:49:53.408Z,961.65
2022-09-12T07:52:52.444Z,961.39
2022-09-12T07:53:52.336Z,961.46
2022-09-12T07:54:52.474Z,961.43
2022-09-12T07:55:52.444Z,961.37
2022-09-12T07:56:56.448Z,961.41
2022-09-12T07:59:53.297Z,961.36
2022-09-12T08:00:52.365Z,961.37
2022-09-12T08:01:52.450Z,961.41
2022-09-12T08:02:52.572Z,961.4
2022-09-12T08:03:52.365Z,961.37
2022-09-12T08:04:52.363Z,961.32
2022-09-12T08:05:52.518Z,961.33
2022-09-12T08:07:55.844Z,961.31
2022-09-12T08:08:52.663Z,961.37
2022-09-12T08:09:52.495Z,961.34
2022-09-12T08:10:52.471Z,961.41
2022-09-12T08:13:55.207Z,961.29
2022-09-12T08:14:52.562Z,961.3
2022-09-12T08:15:52.537Z,961.34
2022-09-12T08:16:52.473Z,961.32
2022-09-12T08:17:53.535Z,961.37
2022-09-12T08:19:52.471Z,961.43
2022-09-12T08:20:52.419Z,961.48
2022-09-12T08:21:52.516Z,961.39
2022-09-12T08:22:52.478Z,961.36
2022-09-12T08:23:52.664Z,961.37
2022-09-12T08:24:52.605Z,961.31
2022-09-12T08:26:52.541Z,961.33
2022-09-12T08:27:52.424Z,961.4
2022-09-12T08:28:52.590Z,961.37
2022-09-12T08:29:52.444Z,961.42
2022-09-12T08:30:52.547Z,961.37
2022-09-12T08:32:52.444Z,961.27
2022-09-12T08:33:52.442Z,961.26
2022-09-12T08:34:52.588Z,961.28
2022-09-12T08:35:52.558Z,961.27
2022-09-12T08:36:52.555Z,961.29
2022-09-12T08:37:52.600Z,961.36
2022-09-12T08:38:55.306Z,961.32
2022-09-12T08:39:53.278Z,961.33
2022-09-12T08:41:52.571Z,961.31
2022-09-12T08:42:52.542Z,961.28
2022-09-12T08:46:52.727Z,961.14
2022-09-12T08:47:53.556Z,961.13
2022-09-12T08:48:52.551Z,961.19
2022-09-12T08:49:52.615Z,961.23
2022-09-12T08:50:52.483Z,961.15
2022-09-12T08:52:52.489Z,961.18
2022-09-12T08:53:52.491Z,961.15
2022-09-12T08:54:52.556Z,961.14
2022-09-12T08:57:52.887Z,961.15
2022-09-12T08:58:52.625Z,961.14
2022-09-12T09:00:52.503Z,961.16
2022-09-12T09:01:52.658Z,961.11
2022-09-12T09:02:52.688Z,961.16
2022-09-12T09:03:52.576Z,961.18
2022-09-12T09:04:52.530Z,961.22
2022-09-12T09:05:52.734Z,961.18
2022-09-12T09:06:52.676Z,961.21
2022-09-12T09:08:52.738Z,961.2
2022-09-12T09:09:52.572Z,961.17
2022-09-12T09:10:52.661Z,961.2
2022-09-12T09:11:52.529Z,961.14
2022-09-12T09:13:52.537Z,961.1
2022-09-12T09:14:52.609Z,961.08
2022-09-12T09:15:52.683Z,961.07
2022-09-12T09:16:52.543Z,961.09
2022-09-12T09:17:52.616Z,961.07
2022-09-12T09:18:52.550Z,961.05
2022-09-12T09:20:52.643Z,961.07
2022-09-12T09:21:52.572Z,961.05
2022-09-12T09:22:53.508Z,961.04
2022-09-12T09:23:52.631Z,961.01
2022-09-12T09:25:52.572Z,961.07
2022-09-12T09:26:52.643Z,961.1
2022-09-12T09:27:52.702Z,961.06
2022-09-12T09:29:52.750Z,961.03
2022-09-12T09:30:52.730Z,961
2022-09-12T09:31:52.761Z,960.98
2022-09-12T09:32:52.586Z,961
2022-09-12T09:33:52.591Z,960.99
2022-09-12T09:34:52.668Z,961
2022-09-12T09:35:52.757Z,961.04
2022-09-12T09:36:52.715Z,961
2022-09-12T09:37:55.590Z,961.04
2022-09-12T09:40:52.681Z,960.94
2022-09-12T09:41:52.862Z,960.96
2022-09-12T09:42:52.720Z,960.93
2022-09-12T09:43:52.679Z,960.94
2022-09-12T09:44:52.757Z,960.93
2022-09-12T09:45:52.695Z,960.94
2022-09-12T09:46:52.743Z,960.92
2022-09-12T09:47:52.760Z,960.9
2022-09-12T09:48:52.753Z,960.92
2022-09-12T09:49:52.857Z,960.93
2022-09-12T09:50:52.626Z,960.95
2022-09-12T09:52:52.704Z,960.93
2022-09-12T09:53:52.769Z,960.89
2022-09-12T09:55:52.809Z,960.9
2022-09-12T09:56:52.773Z,960.89
2022-09-12T09:57:52.647Z,960.88
2022-09-12T09:58:53.723Z,960.85
2022-09-12T09:59:52.780Z,960.86
2022-09-12T10:00:56.158Z,960.8
2022-09-12T10:01:52.873Z,960.79
2022-09-12T10:02:53.675Z,960.76
2022-09-12T10:03:52.935Z,960.73
2022-09-12T10:04:52.707Z,960.68
2022-09-12T10:05:52.790Z,960.64
2022-09-12T10:06:52.752Z,960.63
2022-09-12T10:09:52.850Z,960.55
2022-09-12T10:10:52.725Z,960.52
2022-09-12T10:11:52.678Z,960.53
2022-09-12T10:12:52.756Z,960.54
2022-09-12T10:13:52.834Z,960.53
2022-09-12T10:14:52.708Z,960.56
2022-09-12T10:15:52.787Z,960.58
2022-09-12T10:16:52.828Z,960.56
2022-09-12T10:17:52.803Z,960.6
2022-09-12T10:18:52.768Z,960.58
2022-09-12T10:22:52.941Z,960.64
2022-09-12T10:25:52.776Z,960.61
2022-09-12T10:26:56.529Z,960.59
2022-09-12T10:27:52.785Z,960.57
2022-09-12T10:28:52.848Z,960.64
2022-09-12T10:29:52.830Z,960.63
2022-09-12T10:30:52.906Z,960.62
2022-09-12T10:31:52.860Z,960.65
2022-09-12T10:32:52.825Z,960.68
2022-09-12T10:34:52.863Z,960.64
2022-09-12T10:35:52.826Z,960.6
2022-09-12T10:36:52.993Z,960.62
2022-09-12T10:37:52.872Z,960.59
2022-09-12T10:39:52.813Z,960.53
2022-09-12T10:41:52.831Z,960.52
2022-09-12T10:42:52.841Z,960.5
2022-09-12T10:44:52.771Z,960.52
2022-09-12T10:45:52.971Z,960.51
2022-09-12T10:46:52.879Z,960.5
2022-09-12T10:47:52.844Z,960.49
2022-09-12T10:48:52.776Z,960.55
2022-09-12T10:49:52.880Z,960.46
2022-09-12T10:50:52.851Z,960.52
2022-09-12T10:51:52.916Z,960.55
2022-09-12T10:52:52.794Z,960.52
2022-09-12T10:53:52.852Z,960.55
2022-09-12T10:54:52.828Z,960.53
2022-09-12T10:55:52.885Z,960.54
2022-09-12T10:56:52.861Z,960.5
2022-09-12T10:57:52.831Z,960.51
2022-09-12T11:00:52.804Z,960.5
2022-09-12T11:01:52.884Z,960.47
2022-09-12T11:03:52.963Z,960.48
2022-09-12T11:04:52.912Z,960.44
2022-09-12T11:05:52.890Z,960.45
2022-09-12T11:06:52.942Z,960.44
2022-09-12T11:07:52.906Z,960.46
2022-09-12T11:08:52.910Z,960.45
2022-09-12T11:09:53.074Z,960.41
2022-09-12T11:10:52.913Z,960.42
2022-09-12T11:11:52.976Z,960.38
2022-09-12T11:12:53.053Z,960.39
2022-09-12T11:14:52.882Z,960.41
2022-09-12T11:15:52.978Z,960.4
2022-09-12T11:17:52.884Z,960.36
2022-09-12T11:18:52.942Z,960.33
2022-09-12T11:19:52.920Z,960.31
2022-09-12T11:20:52.892Z,960.33
2022-09-12T11:21:52.967Z,960.27
2022-09-12T11:22:52.933Z,960.26
2022-09-12T11:23:53.003Z,960.25
2022-09-12T11:24:52.969Z,960.2
2022-09-12T11:25:52.947Z,960.24
2022-09-12T11:26:52.881Z,960.26
2022-09-12T11:27:52.965Z,960.27
2022-09-12T11:28:53.039Z,960.26
2022-09-12T11:29:52.889Z,960.25
2022-09-12T11:31:53.132Z,960.25
2022-09-12T11:32:52.885Z,960.24
2022-09-12T11:34:52.890Z,960.19
2022-09-12T11:35:55.132Z,960.18
2022-09-12T11:37:52.951Z,960.16
2022-09-12T11:38:53.026Z,960.13
2022-09-12T11:40:53.049Z,960.11
2022-09-12T11:41:53.019Z,960.15
2022-09-12T11:43:52.981Z,960.1
2022-09-12T11:45:53.017Z,960.09
2022-09-12T11:46:52.944Z,960.13
2022-09-12T11:49:53.088Z,960.23
2022-09-12T11:50:53.025Z,960.25
2022-09-12T11:51:53.000Z,960.17
2022-09-12T11:52:53.068Z,960.18
2022-09-12T11:53:53.024Z,960.14
2022-09-12T11:54:53.982Z,960.12
2022-09-12T11:56:53.139Z,960.13
2022-09-12T11:57:53.048Z,960.11
2022-09-12T11:58:53.100Z,960.08
2022-09-12T11:59:53.035Z,960.09
2022-09-12T12:00:52.958Z,960.1
2022-09-12T12:02:53.044Z,960.11
2022-09-12T12:05:53.048Z,960.05
2022-09-12T12:07:53.084Z,960.06
2022-09-12T12:09:52.977Z,960.12
2022-09-12T12:10:52.990Z,960.09
2022-09-12T12:11:53.065Z,960.04
2022-09-12T12:12:53.130Z,960.05
2022-09-12T12:13:52.994Z,960.04
2022-09-12T12:14:53.059Z,960
2022-09-12T12:16:53.091Z,959.95
2022-09-12T12:17:53.987Z,959.89
2022-09-12T12:19:53.110Z,959.87
2022-09-12T12:21:53.230Z,959.87
2022-09-12T12:22:53.109Z,959.82
2022-09-12T12:26:54.120Z,959.85
2022-09-12T12:27:53.047Z,959.92
2022-09-12T12:28:53.033Z,959.93
2022-09-12T12:29:53.081Z,959.91
2022-09-12T12:31:53.042Z,959.89
2022-09-12T12:32:53.088Z,959.86
2022-09-12T12:33:53.157Z,959.92
2022-09-12T12:34:53.117Z,959.93
2022-09-12T12:35:53.087Z,959.9
2022-09-12T12:36:53.159Z,959.88
2022-09-12T12:37:53.141Z,959.85
2022-09-12T12:38:53.127Z,959.78
2022-09-12T12:39:53.107Z,959.75
2022-09-12T12:41:53.112Z,959.75
2022-09-12T12:42:53.168Z,959.78
2022-09-12T12:45:53.219Z,959.69
2022-09-12T12:46:53.235Z,959.68
2022-09-12T12:48:53.184Z,959.68
2022-09-12T12:49:53.141Z,959.66
2022-09-12T12:53:53.280Z,959.64
2022-09-12T12:54:53.301Z,959.61
2022-09-12T12:55:53.182Z,959.56
2022-09-12T12:56:53.106Z,959.57
2022-09-12T12:57:53.186Z,959.55
2022-09-12T12:58:53.178Z,959.5
2022-09-12T12:59:53.228Z,959.46
2022-09-12T13:00:53.195Z,959.44
2022-09-12T13:01:55.089Z,959.48
2022-09-12T13:02:53.354Z,959.44
2022-09-12T13:03:53.207Z,959.39
2022-09-12T13:04:53.270Z,959.43
2022-09-12T13:05:53.234Z,959.39
2022-09-12T13:06:53.289Z,959.42
2022-09-12T13:07:53.121Z,959.35
2022-09-12T13:08:53.232Z,959.32
2022-09-12T13:09:53.213Z,959.36
2022-09-12T13:10:53.138Z,959.38
2022-09-12T13:11:53.243Z,959.36
2022-09-12T13:12:53.214Z,959.33
2022-09-12T13:13:53.190Z,959.3
2022-09-12T13:14:53.139Z,959.33
2022-09-12T13:15:53.339Z,959.36
2022-09-12T13:16:53.167Z,959.38
2022-09-12T13:17:53.250Z,959.35
2022-09-12T13:18:53.161Z,959.3
2022-09-12T13:20:05.369Z,959.25
2022-09-12T13:20:53.406Z,959.21
2022-09-12T13:21:53.217Z,959.14
2022-09-12T13:22:53.170Z,959.19
2022-09-12T13:23:53.254Z,959.18
2022-09-12T13:24:53.173Z,959.15
2022-09-12T13:25:53.292Z,959.18
2022-09-12T13:26:53.267Z,959.2
2022-09-12T13:27:53.223Z,959.21
2022-09-12T13:28:53.299Z,959.16
2022-09-12T13:29:53.262Z,959.15
2022-09-12T13:30:53.365Z,959.13
2022-09-12T13:31:53.299Z,959.11
2022-09-12T13:32:53.267Z,959.1
2022-09-12T13:33:53.190Z,959.12
2022-09-12T13:34:53.308Z,959.04
2022-09-12T13:35:53.270Z,959.07
2022-09-12T13:36:53.246Z,959.03
2022-09-12T13:38:53.277Z,959.01
2022-09-12T13:39:53.353Z,958.98
2022-09-12T13:40:53.955Z,958.92
2022-09-12T13:42:53.346Z,958.93
2022-09-12T13:43:53.318Z,958.94
2022-09-12T13:44:53.301Z,959.02
2022-09-12T13:45:53.326Z,959.04
2022-09-12T13:46:54.274Z,959.01
2022-09-12T13:49:53.312Z,959.05
2022-09-12T13:50:53.253Z,959.06
2022-09-12T13:51:53.261Z,959.02
2022-09-12T13:52:53.329Z,958.99
2022-09-12T13:54:53.486Z,958.96
2022-09-12T13:55:53.332Z,958.95
2022-09-12T13:56:53.297Z,958.93
2022-09-12T13:57:53.368Z,958.89
2022-09-12T13:58:53.268Z,958.91
2022-09-12T13:59:53.318Z,958.84
2022-09-12T14:00:53.370Z,958.87
2022-09-12T14:01:53.412Z,958.88
2022-09-12T14:02:53.349Z,958.92
2022-09-12T14:04:53.346Z,958.91
2022-09-12T14:05:53.410Z,958.8
2022-09-12T14:07:53.370Z,958.78
2022-09-12T14:08:53.327Z,958.81
2022-09-12T14:09:53.384Z,958.73
2022-09-12T14:10:53.360Z,958.69
2022-09-12T14:11:53.424Z,958.73
2022-09-12T14:13:53.360Z,958.71
2022-09-12T14:14:53.313Z,958.73
2022-09-12T14:15:53.418Z,958.7
2022-09-12T14:16:53.467Z,958.71
2022-09-12T14:17:53.331Z,958.66
2022-09-12T14:19:53.560Z,958.73
2022-09-12T14:20:53.317Z,958.79
2022-09-12T14:21:53.403Z,958.83
2022-09-12T14:22:53.481Z,958.81
2022-09-12T14:23:53.445Z,958.86
2022-09-12T14:24:53.410Z,958.85
2022-09-12T14:28:53.585Z,958.83
2022-09-12T14:29:53.451Z,958.85
2022-09-12T14:30:53.459Z,958.81
2022-09-12T14:31:53.392Z,958.82
2022-09-12T14:33:53.772Z,958.73
2022-09-12T14:36:54.182Z,958.7
2022-09-12T14:37:53.503Z,958.65
2022-09-12T14:39:53.636Z,958.65
2022-09-12T14:40:53.510Z,958.63
2022-09-12T14:41:53.376Z,958.62
2022-09-12T14:42:55.203Z,958.63
2022-09-12T14:43:53.399Z,958.68
2022-09-12T14:44:53.468Z,958.72
2022-09-12T14:45:53.447Z,958.68
2022-09-12T14:46:53.385Z,958.69
2022-09-12T14:47:53.465Z,958.64
2022-09-12T14:48:53.432Z,958.62
2022-09-12T14:50:53.471Z,958.59
2022-09-12T14:51:53.556Z,958.61
2022-09-12T14:52:53.519Z,958.56
2022-09-12T14:53:53.485Z,958.57
2022-09-12T14:55:53.515Z,958.66
2022-09-12T14:56:53.475Z,958.67
2022-09-12T14:57:53.494Z,958.66
2022-09-12T14:59:53.488Z,958.64
2022-09-12T15:00:53.557Z,958.63
2022-09-12T15:02:53.496Z,958.67
2022-09-12T15:03:53.538Z,958.6
2022-09-12T15:04:53.526Z,958.59
2022-09-12T15:06:53.435Z,958.56
2022-09-12T15:07:53.527Z,958.5
2022-09-12T15:08:53.537Z,958.45
2022-09-12T15:10:53.539Z,958.47
2022-09-12T15:11:53.454Z,958.49
2022-09-12T15:12:53.462Z,958.5
2022-09-12T15:13:53.532Z,958.51
2022-09-12T15:14:54.502Z,958.49
2022-09-12T15:15:53.579Z,958.48
2022-09-12T15:16:53.543Z,958.51
2022-09-12T15:18:53.579Z,958.49
2022-09-12T15:19:53.547Z,958.47
2022-09-12T15:20:53.473Z,958.48
2022-09-12T15:21:53.581Z,958.46
2022-09-12T15:22:53.549Z,958.45
2022-09-12T15:23:53.574Z,958.46
2022-09-12T15:24:53.483Z,958.47
2022-09-12T15:25:53.553Z,958.42
2022-09-12T15:27:53.592Z,958.43
2022-09-12T15:28:53.813Z,958.48
2022-09-12T15:29:53.525Z,958.46
2022-09-12T15:30:53.555Z,958.41
2022-09-12T15:31:53.660Z,958.44
2022-09-12T15:32:53.637Z,958.42
2022-09-12T15:33:53.596Z,958.34
2022-09-12T15:34:53.687Z,958.33
2022-09-12T15:35:53.507Z,958.31
2022-09-12T15:37:53.517Z,958.32
2022-09-12T15:38:53.527Z,958.33
2022-09-12T15:39:53.635Z,958.29
2022-09-12T15:40:53.582Z,958.27
2022-09-12T15:43:53.575Z,958.23
2022-09-12T15:44:53.529Z,958.21
2022-09-12T15:45:53.698Z,958.2
2022-09-12T15:46:53.684Z,958.25
2022-09-12T15:47:53.658Z,958.23
2022-09-12T15:48:53.615Z,958.26
2022-09-12T15:49:53.614Z,958.22
2022-09-12T15:50:53.544Z,958.21
2022-09-12T15:51:53.617Z,958.16
2022-09-12T15:53:53.654Z,958.17
2022-09-12T15:54:53.557Z,958.16
2022-09-12T15:55:53.637Z,958.21
2022-09-12T15:57:53.636Z,958.22
2022-09-12T15:59:53.570Z,958.19
2022-09-12T16:00:53.628Z,958.16